sensor_id;sensor_type;location;lat;lon;timestamp;temperature;humidity
25963;DHT22;13760;52.588;13.406;2023-05-29T00:02:09;14.30;99.90
25963;DHT22;13760;52.588;13.406;2023-05-29T00:04:35;14.20;99.90
25963;DHT22;13760;52.588;13.406;2023-05-29T00:07:01;14.10;99.90
25963;DHT22;13760;52.588;13.406;2023-05-29T00:09:26;14.10;99.90
25963;DHT22;13760;52.588;13.406;2023-05-29T00:11:53;14.00;99.90
25963;DHT22;13760;52.588;13.406;2023-05-29T00:14:19;13.90;99.90
25963;DHT22;13760;52.588;13.406;2023-05-29T00:16:46;13.80;99.90
25963;DHT22;13760;52.588;13.406;2023-05-29T00:19:15;13.70;99.90
25963;DHT22;13760;52.588;13.406;2023-05-29T00:21:44;13.60;99.90
25963;DHT22;13760;52.588;13.406;2023-05-29T00:24:13;13.60;99.90
25963;DHT22;13760;52.588;13.406;2023-05-29T00:26:39;13.60;99.90
25963;DHT22;13760;52.588;13.406;2023-05-29T00:29:05;13.60;99.90
25963;DHT22;13760;52.588;13.406;2023-05-29T00:31:30;13.50;99.90
25963;DHT22;13760;52.588;13.406;2023-05-29T00:33:56;13.40;99.90
25963;DHT22;13760;52.588;13.406;2023-05-29T00:36:21;13.40;99.90
25963;DHT22;13760;52.588;13.406;2023-05-29T00:38:48;13.30;99.90
25963;DHT22;13760;52.588;13.406;2023-05-29T00:41:16;13.30;99.90
25963;DHT22;13760;52.588;13.406;2023-05-29T00:43:42;13.20;99.90
25963;DHT22;13760;52.588;13.406;2023-05-29T00:46:09;13.20;99.90
25963;DHT22;13760;52.588;13.406;2023-05-29T00:48:36;13.10;99.90
25963;DHT22;13760;52.588;13.406;2023-05-29T00:51:02;13.10;99.90
25963;DHT22;13760;52.588;13.406;2023-05-29T00:53:28;13.10;99.90
25963;DHT22;13760;52.588;13.406;2023-05-29T00:55:53;13.00;99.90
25963;DHT22;13760;52.588;13.406;2023-05-29T00:58:20;13.00;99.90
25963;DHT22;13760;52.588;13.406;2023-05-29T01:00:46;13.00;99.90
25963;DHT22;13760;52.588;13.406;2023-05-29T01:03:12;12.90;99.90
25963;DHT22;13760;52.588;13.406;2023-05-29T01:05:40;12.90;99.90
25963;DHT22;13760;52.588;13.406;2023-05-29T01:08:07;12.80;99.90
25963;DHT22;13760;52.588;13.406;2023-05-29T01:10:33;12.80;99.90
25963;DHT22;13760;52.588;13.406;2023-05-29T01:13:10;12.80;99.90
25963;DHT22;13760;52.588;13.406;2023-05-29T01:15:46;12.80;99.90
25963;DHT22;13760;52.588;13.406;2023-05-29T01:24:32;12.70;99.90
25963;DHT22;13760;52.588;13.406;2023-05-29T01:27:08;12.60;99.90
25963;DHT22;13760;52.588;13.406;2023-05-29T01:29:38;12.60;99.90
25963;DHT22;13760;52.588;13.406;2023-05-29T01:32:05;12.60;99.90
25963;DHT22;13760;52.588;13.406;2023-05-29T01:34:31;12.70;99.90
25963;DHT22;13760;52.588;13.406;2023-05-29T01:36:56;12.70;99.90
25963;DHT22;13760;52.588;13.406;2023-05-29T01:39:23;12.60;99.90
25963;DHT22;13760;52.588;13.406;2023-05-29T01:41:49;12.60;99.90
25963;DHT22;13760;52.588;13.406;2023-05-29T01:44:16;12.60;99.90
25963;DHT22;13760;52.588;13.406;2023-05-29T01:46:42;12.50;99.90
25963;DHT22;13760;52.588;13.406;2023-05-29T01:49:09;12.60;99.90
25963;DHT22;13760;52.588;13.406;2023-05-29T01:51:37;12.60;99.90
25963;DHT22;13760;52.588;13.406;2023-05-29T01:54:03;12.50;99.90
25963;DHT22;13760;52.588;13.406;2023-05-29T01:56:29;12.50;99.90
25963;DHT22;13760;52.588;13.406;2023-05-29T01:58:56;12.40;99.90
25963;DHT22;13760;52.588;13.406;2023-05-29T02:01:23;12.40;99.90
25963;DHT22;13760;52.588;13.406;2023-05-29T02:03:49;12.40;99.90
25963;DHT22;13760;52.588;13.406;2023-05-29T02:06:16;12.40;99.90
25963;DHT22;13760;52.588;13.406;2023-05-29T02:08:42;12.30;99.90
25963;DHT22;13760;52.588;13.406;2023-05-29T02:11:08;12.30;99.90
25963;DHT22;13760;52.588;13.406;2023-05-29T02:13:34;12.30;99.90
25963;DHT22;13760;52.588;13.406;2023-05-29T02:15:59;12.30;99.90
25963;DHT22;13760;52.588;13.406;2023-05-29T02:18:25;12.30;99.90
25963;DHT22;13760;52.588;13.406;2023-05-29T02:20:51;12.20;99.90
25963;DHT22;13760;52.588;13.406;2023-05-29T02:23:16;12.20;99.90
25963;DHT22;13760;52.588;13.406;2023-05-29T02:25:42;12.10;99.90
25963;DHT22;13760;52.588;13.406;2023-05-29T02:28:08;12.10;99.90
25963;DHT22;13760;52.588;13.406;2023-05-29T02:30:34;12.10;99.90
25963;DHT22;13760;52.588;13.406;2023-05-29T02:33:00;12.00;99.90
25963;DHT22;13760;52.588;13.406;2023-05-29T02:35:25;12.00;99.90
25963;DHT22;13760;52.588;13.406;2023-05-29T02:37:52;12.00;99.90
25963;DHT22;13760;52.588;13.406;2023-05-29T02:40:18;12.00;99.90
25963;DHT22;13760;52.588;13.406;2023-05-29T02:42:44;12.00;99.90
25963;DHT22;13760;52.588;13.406;2023-05-29T02:45:10;12.00;99.90
25963;DHT22;13760;52.588;13.406;2023-05-29T02:47:36;12.00;99.90
25963;DHT22;13760;52.588;13.406;2023-05-29T02:50:03;11.90;99.90
25963;DHT22;13760;52.588;13.406;2023-05-29T02:52:28;11.90;99.90
25963;DHT22;13760;52.588;13.406;2023-05-29T02:54:56;11.80;99.90
25963;DHT22;13760;52.588;13.406;2023-05-29T02:57:22;11.90;99.90
25963;DHT22;13760;52.588;13.406;2023-05-29T02:59:47;11.80;99.90
25963;DHT22;13760;52.588;13.406;2023-05-29T03:02:13;11.80;99.90
25963;DHT22;13760;52.588;13.406;2023-05-29T03:04:38;11.80;99.90
25963;DHT22;13760;52.588;13.406;2023-05-29T03:07:04;11.80;99.90
25963;DHT22;13760;52.588;13.406;2023-05-29T03:09:32;11.80;99.90
25963;DHT22;13760;52.588;13.406;2023-05-29T03:11:57;11.70;99.90
25963;DHT22;13760;52.588;13.406;2023-05-29T03:14:23;11.80;99.90
25963;DHT22;13760;52.588;13.406;2023-05-29T03:16:49;11.70;99.90
25963;DHT22;13760;52.588;13.406;2023-05-29T03:19:18;11.70;99.90
25963;DHT22;13760;52.588;13.406;2023-05-29T03:21:43;11.70;99.90
25963;DHT22;13760;52.588;13.406;2023-05-29T03:24:09;11.70;99.90
25963;DHT22;13760;52.588;13.406;2023-05-29T03:26:35;11.70;99.90
25963;DHT22;13760;52.588;13.406;2023-05-29T03:29:02;11.70;99.90
25963;DHT22;13760;52.588;13.406;2023-05-29T03:31:27;11.70;99.90
25963;DHT22;13760;52.588;13.406;2023-05-29T03:33:53;11.70;99.90
25963;DHT22;13760;52.588;13.406;2023-05-29T03:36:18;11.60;99.90
25963;DHT22;13760;52.588;13.406;2023-05-29T03:38:44;11.60;99.90
25963;DHT22;13760;52.588;13.406;2023-05-29T03:41:10;11.60;99.90
25963;DHT22;13760;52.588;13.406;2023-05-29T03:43:35;11.70;99.90
25963;DHT22;13760;52.588;13.406;2023-05-29T03:46:01;11.70;99.90
25963;DHT22;13760;52.588;13.406;2023-05-29T03:48:27;11.60;99.90
25963;DHT22;13760;52.588;13.406;2023-05-29T03:50:52;11.50;99.90
25963;DHT22;13760;52.588;13.406;2023-05-29T03:53:18;11.60;99.90
25963;DHT22;13760;52.588;13.406;2023-05-29T03:55:44;11.60;99.90
25963;DHT22;13760;52.588;13.406;2023-05-29T03:58:09;11.60;99.90
25963;DHT22;13760;52.588;13.406;2023-05-29T04:00:37;11.70;99.90
25963;DHT22;13760;52.588;13.406;2023-05-29T04:03:03;11.70;99.90
25963;DHT22;13760;52.588;13.406;2023-05-29T04:05:28;11.70;99.90
25963;DHT22;13760;52.588;13.406;2023-05-29T04:07:55;11.70;99.90
25963;DHT22;13760;52.588;13.406;2023-05-29T04:10:20;11.80;99.90
25963;DHT22;13760;52.588;13.406;2023-05-29T04:12:46;11.80;99.90
25963;DHT22;13760;52.588;13.406;2023-05-29T04:15:11;11.80;99.90
25963;DHT22;13760;52.588;13.406;2023-05-29T04:17:37;11.80;99.90
25963;DHT22;13760;52.588;13.406;2023-05-29T04:20:03;11.80;99.90
25963;DHT22;13760;52.588;13.406;2023-05-29T04:22:34;11.90;99.90
25963;DHT22;13760;52.588;13.406;2023-05-29T04:25:00;11.90;99.90
25963;DHT22;13760;52.588;13.406;2023-05-29T04:27:26;11.90;99.90
25963;DHT22;13760;52.588;13.406;2023-05-29T04:29:51;11.90;99.90
25963;DHT22;13760;52.588;13.406;2023-05-29T04:32:17;11.90;99.90
25963;DHT22;13760;52.588;13.406;2023-05-29T04:34:43;11.90;99.90
25963;DHT22;13760;52.588;13.406;2023-05-29T04:37:09;12.00;99.90
25963;DHT22;13760;52.588;13.406;2023-05-29T04:39:34;12.10;99.90
25963;DHT22;13760;52.588;13.406;2023-05-29T04:42:00;12.10;99.90
25963;DHT22;13760;52.588;13.406;2023-05-29T04:44:26;12.20;99.90
25963;DHT22;13760;52.588;13.406;2023-05-29T04:46:52;12.30;99.90
25963;DHT22;13760;52.588;13.406;2023-05-29T04:49:18;12.40;99.90
25963;DHT22;13760;52.588;13.406;2023-05-29T04:51:46;12.50;99.90
25963;DHT22;13760;52.588;13.406;2023-05-29T04:54:11;12.50;99.90
25963;DHT22;13760;52.588;13.406;2023-05-29T04:56:37;12.60;99.90
25963;DHT22;13760;52.588;13.406;2023-05-29T04:59:06;12.60;99.90
25963;DHT22;13760;52.588;13.406;2023-05-29T05:01:32;12.60;99.90
25963;DHT22;13760;52.588;13.406;2023-05-29T05:03:59;12.60;99.90
25963;DHT22;13760;52.588;13.406;2023-05-29T05:06:24;12.60;99.90
25963;DHT22;13760;52.588;13.406;2023-05-29T05:08:51;12.60;99.90
25963;DHT22;13760;52.588;13.406;2023-05-29T05:11:18;12.70;99.90
25963;DHT22;13760;52.588;13.406;2023-05-29T05:13:44;12.70;99.90
25963;DHT22;13760;52.588;13.406;2023-05-29T05:16:10;12.80;99.90
25963;DHT22;13760;52.588;13.406;2023-05-29T05:18:36;12.90;99.90
25963;DHT22;13760;52.588;13.406;2023-05-29T05:21:02;12.90;99.90
25963;DHT22;13760;52.588;13.406;2023-05-29T05:23:29;13.00;99.90
25963;DHT22;13760;52.588;13.406;2023-05-29T05:25:55;13.10;99.90
25963;DHT22;13760;52.588;13.406;2023-05-29T05:28:21;13.10;99.90
25963;DHT22;13760;52.588;13.406;2023-05-29T05:30:46;13.30;99.90
25963;DHT22;13760;52.588;13.406;2023-05-29T05:33:12;13.30;99.90
25963;DHT22;13760;52.588;13.406;2023-05-29T05:35:37;13.40;99.90
25963;DHT22;13760;52.588;13.406;2023-05-29T05:38:03;13.50;99.90
25963;DHT22;13760;52.588;13.406;2023-05-29T05:40:29;13.60;99.90
25963;DHT22;13760;52.588;13.406;2023-05-29T05:42:55;13.70;99.90
25963;DHT22;13760;52.588;13.406;2023-05-29T05:45:20;13.80;99.90
25963;DHT22;13760;52.588;13.406;2023-05-29T05:47:46;13.90;99.90
25963;DHT22;13760;52.588;13.406;2023-05-29T05:50:12;14.00;99.90
25963;DHT22;13760;52.588;13.406;2023-05-29T05:52:38;14.10;99.90
25963;DHT22;13760;52.588;13.406;2023-05-29T05:55:04;14.20;99.90
25963;DHT22;13760;52.588;13.406;2023-05-29T05:57:30;14.40;99.90
25963;DHT22;13760;52.588;13.406;2023-05-29T05:59:58;14.50;99.90
25963;DHT22;13760;52.588;13.406;2023-05-29T06:02:23;14.70;99.90
25963;DHT22;13760;52.588;13.406;2023-05-29T06:04:49;14.80;99.90
25963;DHT22;13760;52.588;13.406;2023-05-29T06:07:15;14.80;99.90
25963;DHT22;13760;52.588;13.406;2023-05-29T06:09:40;14.90;99.90
25963;DHT22;13760;52.588;13.406;2023-05-29T06:12:07;15.00;99.90
25963;DHT22;13760;52.588;13.406;2023-05-29T06:14:34;15.00;99.90
25963;DHT22;13760;52.588;13.406;2023-05-29T06:17:00;15.10;99.90
25963;DHT22;13760;52.588;13.406;2023-05-29T06:19:26;15.10;99.90
25963;DHT22;13760;52.588;13.406;2023-05-29T06:21:52;15.20;99.90
25963;DHT22;13760;52.588;13.406;2023-05-29T06:24:17;15.30;99.90
25963;DHT22;13760;52.588;13.406;2023-05-29T06:26:43;15.40;99.90
25963;DHT22;13760;52.588;13.406;2023-05-29T06:29:09;15.50;99.90
25963;DHT22;13760;52.588;13.406;2023-05-29T06:31:34;15.60;99.90
25963;DHT22;13760;52.588;13.406;2023-05-29T06:34:00;15.80;99.90
25963;DHT22;13760;52.588;13.406;2023-05-29T06:36:25;15.90;99.90
25963;DHT22;13760;52.588;13.406;2023-05-29T06:38:51;16.10;99.90
25963;DHT22;13760;52.588;13.406;2023-05-29T06:41:18;16.20;99.90
25963;DHT22;13760;52.588;13.406;2023-05-29T06:43:44;16.40;99.90
25963;DHT22;13760;52.588;13.406;2023-05-29T06:46:10;16.50;99.90
25963;DHT22;13760;52.588;13.406;2023-05-29T06:48:36;16.60;99.90
25963;DHT22;13760;52.588;13.406;2023-05-29T06:51:02;16.70;99.90
25963;DHT22;13760;52.588;13.406;2023-05-29T06:53:38;16.80;99.90
25963;DHT22;13760;52.588;13.406;2023-05-29T06:56:04;16.90;99.90
25963;DHT22;13760;52.588;13.406;2023-05-29T06:58:31;17.00;99.90
25963;DHT22;13760;52.588;13.406;2023-05-29T07:00:57;17.20;99.90
25963;DHT22;13760;52.588;13.406;2023-05-29T07:03:27;17.30;99.90
25963;DHT22;13760;52.588;13.406;2023-05-29T07:05:53;17.50;99.90
25963;DHT22;13760;52.588;13.406;2023-05-29T07:08:19;17.60;99.90
25963;DHT22;13760;52.588;13.406;2023-05-29T07:10:45;17.70;99.90
25963;DHT22;13760;52.588;13.406;2023-05-29T07:13:15;17.80;99.90
25963;DHT22;13760;52.588;13.406;2023-05-29T07:15:48;17.90;99.90
25963;DHT22;13760;52.588;13.406;2023-05-29T07:18:22;17.90;99.90
25963;DHT22;13760;52.588;13.406;2023-05-29T07:23:53;18.10;99.90
25963;DHT22;13760;52.588;13.406;2023-05-29T07:26:19;18.30;99.90
25963;DHT22;13760;52.588;13.406;2023-05-29T07:28:47;18.50;99.90
25963;DHT22;13760;52.588;13.406;2023-05-29T07:31:12;18.70;99.90
25963;DHT22;13760;52.588;13.406;2023-05-29T07:33:40;18.80;99.90
25963;DHT22;13760;52.588;13.406;2023-05-29T07:36:06;18.80;99.90
25963;DHT22;13760;52.588;13.406;2023-05-29T07:38:36;19.00;99.90
25963;DHT22;13760;52.588;13.406;2023-05-29T07:41:02;19.00;99.90
25963;DHT22;13760;52.588;13.406;2023-05-29T07:43:28;19.10;99.90
25963;DHT22;13760;52.588;13.406;2023-05-29T07:46:19;19.20;99.70
25963;DHT22;13760;52.588;13.406;2023-05-29T07:48:51;19.20;99.90
25963;DHT22;13760;52.588;13.406;2023-05-29T07:51:20;19.00;99.50
25963;DHT22;13760;52.588;13.406;2023-05-29T07:53:49;18.70;98.60
25963;DHT22;13760;52.588;13.406;2023-05-29T07:56:18;18.70;99.00
25963;DHT22;13760;52.588;13.406;2023-05-29T07:58:49;18.90;99.20
25963;DHT22;13760;52.588;13.406;2023-05-29T08:01:18;19.00;98.50
25963;DHT22;13760;52.588;13.406;2023-05-29T08:03:54;19.20;98.40
25963;DHT22;13760;52.588;13.406;2023-05-29T08:06:31;19.40;98.30
25963;DHT22;13760;52.588;13.406;2023-05-29T08:09:27;19.40;97.30
25963;DHT22;13760;52.588;13.406;2023-05-29T08:11:58;19.60;96.90
25963;DHT22;13760;52.588;13.406;2023-05-29T08:14:25;19.70;96.50
25963;DHT22;13760;52.588;13.406;2023-05-29T08:16:51;19.50;96.00
25963;DHT22;13760;52.588;13.406;2023-05-29T08:19:16;19.40;96.70
25963;DHT22;13760;52.588;13.406;2023-05-29T08:21:42;19.60;96.90
25963;DHT22;13760;52.588;13.406;2023-05-29T08:24:07;19.70;96.60
25963;DHT22;13760;52.588;13.406;2023-05-29T08:26:34;19.70;95.10
25963;DHT22;13760;52.588;13.406;2023-05-29T08:29:00;19.80;96.00
25963;DHT22;13760;52.588;13.406;2023-05-29T08:31:26;20.10;95.70
25963;DHT22;13760;52.588;13.406;2023-05-29T08:33:53;19.90;93.70
25963;DHT22;13760;52.588;13.406;2023-05-29T08:36:19;20.20;94.20
25963;DHT22;13760;52.588;13.406;2023-05-29T08:38:50;20.40;93.40
25963;DHT22;13760;52.588;13.406;2023-05-29T08:44:28;20.40;91.80
25963;DHT22;13760;52.588;13.406;2023-05-29T08:46:55;20.50;91.80
25963;DHT22;13760;52.588;13.406;2023-05-29T08:49:21;20.60;92.70
25963;DHT22;13760;52.588;13.406;2023-05-29T08:51:57;20.80;92.60
25963;DHT22;13760;52.588;13.406;2023-05-29T08:54:26;20.90;91.80
25963;DHT22;13760;52.588;13.406;2023-05-29T08:56:51;20.90;91.60
25963;DHT22;13760;52.588;13.406;2023-05-29T08:59:17;20.90;91.30
25963;DHT22;13760;52.588;13.406;2023-05-29T09:01:43;21.00;92.60
25963;DHT22;13760;52.588;13.406;2023-05-29T09:04:09;21.20;92.20
25963;DHT22;13760;52.588;13.406;2023-05-29T09:06:34;21.50;91.50
25963;DHT22;13760;52.588;13.406;2023-05-29T09:09:00;21.50;90.90
25963;DHT22;13760;52.588;13.406;2023-05-29T09:11:26;21.40;90.60
25963;DHT22;13760;52.588;13.406;2023-05-29T09:13:52;21.50;91.10
25963;DHT22;13760;52.588;13.406;2023-05-29T09:16:18;21.70;90.30
25963;DHT22;13760;52.588;13.406;2023-05-29T09:18:44;21.90;90.40
25963;DHT22;13760;52.588;13.406;2023-05-29T09:21:26;22.20;87.50
25963;DHT22;13760;52.588;13.406;2023-05-29T09:23:54;22.30;85.00
25963;DHT22;13760;52.588;13.406;2023-05-29T09:26:24;22.30;87.20
25963;DHT22;13760;52.588;13.406;2023-05-29T09:28:50;22.30;85.20
25963;DHT22;13760;52.588;13.406;2023-05-29T09:31:15;22.20;83.90
25963;DHT22;13760;52.588;13.406;2023-05-29T09:33:49;21.60;82.90
25963;DHT22;13760;52.588;13.406;2023-05-29T09:36:22;21.50;84.30
25963;DHT22;13760;52.588;13.406;2023-05-29T09:38:48;21.30;85.10
25963;DHT22;13760;52.588;13.406;2023-05-29T09:41:20;21.10;82.90
25963;DHT22;13760;52.588;13.406;2023-05-29T09:43:50;21.10;83.70
25963;DHT22;13760;52.588;13.406;2023-05-29T09:46:24;21.30;85.30
25963;DHT22;13760;52.588;13.406;2023-05-29T09:51:41;21.90;83.30
25963;DHT22;13760;52.588;13.406;2023-05-29T09:54:18;22.00;79.00
25963;DHT22;13760;52.588;13.406;2023-05-29T09:56:45;21.90;78.20
25963;DHT22;13760;52.588;13.406;2023-05-29T09:59:15;21.70;80.10
25963;DHT22;13760;52.588;13.406;2023-05-29T10:02:06;21.80;80.30
25963;DHT22;13760;52.588;13.406;2023-05-29T10:04:44;21.70;80.50
25963;DHT22;13760;52.588;13.406;2023-05-29T10:07:37;21.50;77.30
25963;DHT22;13760;52.588;13.406;2023-05-29T10:10:06;21.40;79.50
25963;DHT22;13760;52.588;13.406;2023-05-29T10:12:38;21.30;79.60
25963;DHT22;13760;52.588;13.406;2023-05-29T10:15:15;21.30;80.10
25963;DHT22;13760;52.588;13.406;2023-05-29T10:17:50;21.60;80.50
25963;DHT22;13760;52.588;13.406;2023-05-29T10:20:18;21.80;76.10
25963;DHT22;13760;52.588;13.406;2023-05-29T10:22:50;22.10;79.30
25963;DHT22;13760;52.588;13.406;2023-05-29T10:25:19;22.30;77.40
25963;DHT22;13760;52.588;13.406;2023-05-29T10:27:46;22.40;76.20
25963;DHT22;13760;52.588;13.406;2023-05-29T10:30:27;22.60;74.80
25963;DHT22;13760;52.588;13.406;2023-05-29T10:35:48;22.10;73.90
25963;DHT22;13760;52.588;13.406;2023-05-29T10:38:17;21.90;76.00
25963;DHT22;13760;52.588;13.406;2023-05-29T10:40:44;21.70;75.30
25963;DHT22;13760;52.588;13.406;2023-05-29T10:43:29;21.60;74.30
25963;DHT22;13760;52.588;13.406;2023-05-29T10:45:56;21.40;75.40
25963;DHT22;13760;52.588;13.406;2023-05-29T10:50:55;21.30;76.70
25963;DHT22;13760;52.588;13.406;2023-05-29T10:53:26;21.20;74.10
25963;DHT22;13760;52.588;13.406;2023-05-29T10:55:52;21.30;76.80
25963;DHT22;13760;52.588;13.406;2023-05-29T10:58:19;21.40;76.60
25963;DHT22;13760;52.588;13.406;2023-05-29T11:00:46;21.70;74.40
25963;DHT22;13760;52.588;13.406;2023-05-29T11:03:24;21.90;74.80
25963;DHT22;13760;52.588;13.406;2023-05-29T11:06:00;22.30;75.40
25963;DHT22;13760;52.588;13.406;2023-05-29T11:08:55;22.40;74.50
25963;DHT22;13760;52.588;13.406;2023-05-29T11:11:31;22.40;74.10
25963;DHT22;13760;52.588;13.406;2023-05-29T11:14:05;22.30;72.80
25963;DHT22;13760;52.588;13.406;2023-05-29T11:18:58;21.90;74.40
25963;DHT22;13760;52.588;13.406;2023-05-29T11:24:05;22.20;73.40
25963;DHT22;13760;52.588;13.406;2023-05-29T11:26:32;22.40;72.90
25963;DHT22;13760;52.588;13.406;2023-05-29T11:28:59;22.50;72.40
25963;DHT22;13760;52.588;13.406;2023-05-29T11:31:27;22.60;70.40
25963;DHT22;13760;52.588;13.406;2023-05-29T11:33:54;22.70;71.30
25963;DHT22;13760;52.588;13.406;2023-05-29T11:36:24;22.60;68.90
25963;DHT22;13760;52.588;13.406;2023-05-29T11:38:51;22.50;69.80
25963;DHT22;13760;52.588;13.406;2023-05-29T11:41:17;22.20;69.90
25963;DHT22;13760;52.588;13.406;2023-05-29T11:43:43;22.20;72.00
25963;DHT22;13760;52.588;13.406;2023-05-29T11:46:19;22.10;71.10
25963;DHT22;13760;52.588;13.406;2023-05-29T11:48:48;22.10;70.70
25963;DHT22;13760;52.588;13.406;2023-05-29T11:51:14;22.20;71.90
25963;DHT22;13760;52.588;13.406;2023-05-29T11:53:41;22.30;71.10
25963;DHT22;13760;52.588;13.406;2023-05-29T11:56:10;22.30;72.20
25963;DHT22;13760;52.588;13.406;2023-05-29T11:58:40;22.50;70.90
25963;DHT22;13760;52.588;13.406;2023-05-29T12:01:06;22.30;69.30
25963;DHT22;13760;52.588;13.406;2023-05-29T12:03:42;21.90;70.40
25963;DHT22;13760;52.588;13.406;2023-05-29T12:06:11;21.50;71.90
25963;DHT22;13760;52.588;13.406;2023-05-29T12:08:38;21.30;71.80
25963;DHT22;13760;52.588;13.406;2023-05-29T12:11:04;21.30;74.70
25963;DHT22;13760;52.588;13.406;2023-05-29T12:13:30;21.40;75.60
25963;DHT22;13760;52.588;13.406;2023-05-29T12:16:01;21.50;74.40
25963;DHT22;13760;52.588;13.406;2023-05-29T12:18:28;21.60;72.00
25963;DHT22;13760;52.588;13.406;2023-05-29T12:21:02;21.70;69.60
25963;DHT22;13760;52.588;13.406;2023-05-29T12:23:28;22.00;72.00
25963;DHT22;13760;52.588;13.406;2023-05-29T12:25:55;22.20;71.70
25963;DHT22;13760;52.588;13.406;2023-05-29T12:28:21;22.40;71.20
25963;DHT22;13760;52.588;13.406;2023-05-29T12:30:47;22.60;68.10
25963;DHT22;13760;52.588;13.406;2023-05-29T12:33:31;22.70;68.40
25963;DHT22;13760;52.588;13.406;2023-05-29T12:36:04;22.80;65.90
25963;DHT22;13760;52.588;13.406;2023-05-29T12:38:30;23.00;67.90
25963;DHT22;13760;52.588;13.406;2023-05-29T12:40:56;23.00;67.30
25963;DHT22;13760;52.588;13.406;2023-05-29T12:43:22;23.00;66.80
25963;DHT22;13760;52.588;13.406;2023-05-29T12:45:54;22.90;67.60
25963;DHT22;13760;52.588;13.406;2023-05-29T12:48:20;22.70;65.60
25963;DHT22;13760;52.588;13.406;2023-05-29T12:50:49;22.60;66.70
25963;DHT22;13760;52.588;13.406;2023-05-29T12:53:15;22.70;65.60
25963;DHT22;13760;52.588;13.406;2023-05-29T12:55:42;22.70;66.80
25963;DHT22;13760;52.588;13.406;2023-05-29T12:58:13;22.60;65.50
25963;DHT22;13760;52.588;13.406;2023-05-29T13:00:41;22.70;65.10
25963;DHT22;13760;52.588;13.406;2023-05-29T13:03:07;22.80;66.00
25963;DHT22;13760;52.588;13.406;2023-05-29T13:05:33;23.00;66.50
25963;DHT22;13760;52.588;13.406;2023-05-29T13:07:59;23.30;65.90
25963;DHT22;13760;52.588;13.406;2023-05-29T13:10:25;23.30;64.90
25963;DHT22;13760;52.588;13.406;2023-05-29T13:12:52;23.40;65.00
25963;DHT22;13760;52.588;13.406;2023-05-29T13:15:21;23.40;64.40
25963;DHT22;13760;52.588;13.406;2023-05-29T13:17:47;23.30;64.80
25963;DHT22;13760;52.588;13.406;2023-05-29T13:20:13;23.20;65.30
25963;DHT22;13760;52.588;13.406;2023-05-29T13:22:40;23.10;64.20
25963;DHT22;13760;52.588;13.406;2023-05-29T13:25:06;23.20;65.70
25963;DHT22;13760;52.588;13.406;2023-05-29T13:27:33;23.30;65.10
25963;DHT22;13760;52.588;13.406;2023-05-29T13:30:03;23.50;65.50
25963;DHT22;13760;52.588;13.406;2023-05-29T13:32:29;23.60;63.80
25963;DHT22;13760;52.588;13.406;2023-05-29T13:34:55;23.70;61.30
25963;DHT22;13760;52.588;13.406;2023-05-29T13:37:21;23.60;61.30
25963;DHT22;13760;52.588;13.406;2023-05-29T13:39:46;23.50;62.50
25963;DHT22;13760;52.588;13.406;2023-05-29T13:42:12;23.70;61.00
25963;DHT22;13760;52.588;13.406;2023-05-29T13:44:38;23.80;61.50
25963;DHT22;13760;52.588;13.406;2023-05-29T13:47:04;23.80;60.50
25963;DHT22;13760;52.588;13.406;2023-05-29T13:49:30;24.00;60.10
25963;DHT22;13760;52.588;13.406;2023-05-29T13:51:56;24.00;59.10
25963;DHT22;13760;52.588;13.406;2023-05-29T13:54:21;24.20;59.50
25963;DHT22;13760;52.588;13.406;2023-05-29T13:56:48;24.10;59.00
25963;DHT22;13760;52.588;13.406;2023-05-29T13:59:13;23.80;58.90
25963;DHT22;13760;52.588;13.406;2023-05-29T14:01:40;23.70;60.40
25963;DHT22;13760;52.588;13.406;2023-05-29T14:04:06;23.60;59.50
25963;DHT22;13760;52.588;13.406;2023-05-29T14:06:32;23.50;60.30
25963;DHT22;13760;52.588;13.406;2023-05-29T14:08:58;23.40;60.20
25963;DHT22;13760;52.588;13.406;2023-05-29T14:11:23;23.30;61.20
25963;DHT22;13760;52.588;13.406;2023-05-29T14:13:50;23.40;61.60
25963;DHT22;13760;52.588;13.406;2023-05-29T14:16:16;23.80;61.30
25963;DHT22;13760;52.588;13.406;2023-05-29T14:18:41;24.00;58.50
25963;DHT22;13760;52.588;13.406;2023-05-29T14:21:07;24.10;59.60
25963;DHT22;13760;52.588;13.406;2023-05-29T14:23:33;24.40;58.20
25963;DHT22;13760;52.588;13.406;2023-05-29T14:26:01;24.50;57.50
25963;DHT22;13760;52.588;13.406;2023-05-29T14:28:29;24.60;57.20
25963;DHT22;13760;52.588;13.406;2023-05-29T14:30:55;24.40;56.00
25963;DHT22;13760;52.588;13.406;2023-05-29T14:33:20;24.00;56.30
25963;DHT22;13760;52.588;13.406;2023-05-29T14:35:47;23.80;57.50
25963;DHT22;13760;52.588;13.406;2023-05-29T14:38:12;23.60;57.80
25963;DHT22;13760;52.588;13.406;2023-05-29T14:40:41;23.40;57.20
25963;DHT22;13760;52.588;13.406;2023-05-29T14:43:07;23.40;58.90
25963;DHT22;13760;52.588;13.406;2023-05-29T14:45:32;23.40;58.50
25963;DHT22;13760;52.588;13.406;2023-05-29T14:47:58;23.40;59.30
25963;DHT22;13760;52.588;13.406;2023-05-29T14:50:24;23.30;58.80
25963;DHT22;13760;52.588;13.406;2023-05-29T14:52:50;23.20;58.40
25963;DHT22;13760;52.588;13.406;2023-05-29T14:55:16;23.10;57.40
25963;DHT22;13760;52.588;13.406;2023-05-29T14:57:41;23.10;57.30
25963;DHT22;13760;52.588;13.406;2023-05-29T15:00:07;23.00;58.50
25963;DHT22;13760;52.588;13.406;2023-05-29T15:02:33;23.00;58.80
25963;DHT22;13760;52.588;13.406;2023-05-29T15:04:59;22.90;57.50
25963;DHT22;13760;52.588;13.406;2023-05-29T15:07:25;22.90;57.60
25963;DHT22;13760;52.588;13.406;2023-05-29T15:09:50;22.80;57.50
25963;DHT22;13760;52.588;13.406;2023-05-29T15:12:16;22.70;58.80
25963;DHT22;13760;52.588;13.406;2023-05-29T15:14:41;22.70;58.40
25963;DHT22;13760;52.588;13.406;2023-05-29T15:17:07;22.70;58.20
25963;DHT22;13760;52.588;13.406;2023-05-29T15:19:45;22.60;57.90
25963;DHT22;13760;52.588;13.406;2023-05-29T15:22:18;22.70;58.90
25963;DHT22;13760;52.588;13.406;2023-05-29T15:24:45;22.70;58.70
25963;DHT22;13760;52.588;13.406;2023-05-29T15:27:15;22.80;58.90
25963;DHT22;13760;52.588;13.406;2023-05-29T15:40:38;22.70;59.20
25963;DHT22;13760;52.588;13.406;2023-05-29T15:43:40;22.60;59.40
25963;DHT22;13760;52.588;13.406;2023-05-29T15:49:30;22.40;60.10
25963;DHT22;13760;52.588;13.406;2023-05-29T15:52:18;22.30;60.40
25963;DHT22;13760;52.588;13.406;2023-05-29T15:54:54;22.30;59.70
25963;DHT22;13760;52.588;13.406;2023-05-29T15:57:27;22.20;59.70
25963;DHT22;13760;52.588;13.406;2023-05-29T16:00:00;22.20;60.00